Hollywood, New Mexico
Current Conditions -  °F | °C
As of 3:35 PM on Friday 19 Dec 2014 (Local Time) from KSRR Reporting Station
Clear Clear  
Wind Chill: 32°   Ceiling: Unl
Heat Index: 39°   Visibility: 10mi
Dew Point: 19°   Wind: 12mph
Humidity: 45%   Direction: 310°NW
Pressure: 30.14"   Gusts: 17mph
Location:  33.3909°N, 105.634°W
Report Text: KSRR 192235Z AUTO 31010G15KT 10SM CLR 04/M07 A3014 RMK AO2
Loading
Personal Weather Stations






























Interactive Weather Map New forecast layout! Learn more

10-Day Weather Forecast

Advertisements
Track Severe Weather on mobile